sensor_id;sensor_type;location;lat;lon;timestamp;temperature;humidity
17599;DHT22;8918;52.092;5.232;2022-11-27T00:01:54;7.10;99.90
17599;DHT22;8918;52.092;5.232;2022-11-27T00:04:19;7.10;99.90
17599;DHT22;8918;52.092;5.232;2022-11-27T00:06:45;7.00;99.90
17599;DHT22;8918;52.092;5.232;2022-11-27T00:09:13;7.10;99.90
17599;DHT22;8918;52.092;5.232;2022-11-27T00:11:39;7.00;99.90
17599;DHT22;8918;52.092;5.232;2022-11-27T00:14:06;7.00;99.90
17599;DHT22;8918;52.092;5.232;2022-11-27T00:16:32;7.00;99.90
17599;DHT22;8918;52.092;5.232;2022-11-27T00:18:58;7.00;99.90
17599;DHT22;8918;52.092;5.232;2022-11-27T00:21:28;7.00;99.90
17599;DHT22;8918;52.092;5.232;2022-11-27T00:23:57;7.00;99.90
17599;DHT22;8918;52.092;5.232;2022-11-27T00:26:24;7.00;99.90
17599;DHT22;8918;52.092;5.232;2022-11-27T00:28:51;7.00;99.90
17599;DHT22;8918;52.092;5.232;2022-11-27T00:31:19;7.00;99.90
17599;DHT22;8918;52.092;5.232;2022-11-27T00:33:45;7.00;99.90
17599;DHT22;8918;52.092;5.232;2022-11-27T00:36:12;6.90;99.90
17599;DHT22;8918;52.092;5.232;2022-11-27T00:38:38;6.90;99.90
17599;DHT22;8918;52.092;5.232;2022-11-27T00:41:30;6.90;99.90
17599;DHT22;8918;52.092;5.232;2022-11-27T00:43:56;6.90;99.90
17599;DHT22;8918;52.092;5.232;2022-11-27T00:46:25;6.90;99.90
17599;DHT22;8918;52.092;5.232;2022-11-27T00:48:51;6.90;99.90
17599;DHT22;8918;52.092;5.232;2022-11-27T00:51:18;6.90;99.90
17599;DHT22;8918;52.092;5.232;2022-11-27T00:53:45;6.90;99.90
17599;DHT22;8918;52.092;5.232;2022-11-27T00:56:16;6.90;99.90
17599;DHT22;8918;52.092;5.232;2022-11-27T00:58:42;6.90;99.90
17599;DHT22;8918;52.092;5.232;2022-11-27T01:01:14;6.80;99.90
17599;DHT22;8918;52.092;5.232;2022-11-27T01:03:39;6.80;99.90
17599;DHT22;8918;52.092;5.232;2022-11-27T01:06:06;6.80;99.90
17599;DHT22;8918;52.092;5.232;2022-11-27T01:08:32;6.80;99.90
17599;DHT22;8918;52.092;5.232;2022-11-27T01:10:58;6.90;99.90
17599;DHT22;8918;52.092;5.232;2022-11-27T01:13:27;6.80;99.90
17599;DHT22;8918;52.092;5.232;2022-11-27T01:16:15;6.80;99.90
17599;DHT22;8918;52.092;5.232;2022-11-27T01:18:42;6.80;99.90
17599;DHT22;8918;52.092;5.232;2022-11-27T01:21:08;6.80;99.90
17599;DHT22;8918;52.092;5.232;2022-11-27T01:23:34;6.90;99.90
17599;DHT22;8918;52.092;5.232;2022-11-27T01:26:05;6.80;99.90
17599;DHT22;8918;52.092;5.232;2022-11-27T01:28:32;6.80;99.90
17599;DHT22;8918;52.092;5.232;2022-11-27T01:30:58;6.80;99.90
17599;DHT22;8918;52.092;5.232;2022-11-27T01:33:23;6.80;99.90
17599;DHT22;8918;52.092;5.232;2022-11-27T01:36:07;6.90;99.90
17599;DHT22;8918;52.092;5.232;2022-11-27T01:38:35;6.80;99.90
17599;DHT22;8918;52.092;5.232;2022-11-27T01:41:14;6.80;99.90
17599;DHT22;8918;52.092;5.232;2022-11-27T01:48:51;6.80;99.90
17599;DHT22;8918;52.092;5.232;2022-11-27T01:51:18;6.80;99.90
17599;DHT22;8918;52.092;5.232;2022-11-27T01:53:45;6.80;99.90
17599;DHT22;8918;52.092;5.232;2022-11-27T01:56:11;6.80;99.90
17599;DHT22;8918;52.092;5.232;2022-11-27T01:58:38;6.80;99.90
17599;DHT22;8918;52.092;5.232;2022-11-27T02:01:04;6.80;99.90
17599;DHT22;8918;52.092;5.232;2022-11-27T02:03:29;6.70;99.90
17599;DHT22;8918;52.092;5.232;2022-11-27T02:05:55;6.70;99.90
17599;DHT22;8918;52.092;5.232;2022-11-27T02:08:21;6.70;99.90
17599;DHT22;8918;52.092;5.232;2022-11-27T02:13:28;6.70;99.90
17599;DHT22;8918;52.092;5.232;2022-11-27T02:24:29;6.50;99.90
17599;DHT22;8918;52.092;5.232;2022-11-27T02:29:49;6.50;99.90
17599;DHT22;8918;52.092;5.232;2022-11-27T02:32:28;6.50;99.90
17599;DHT22;8918;52.092;5.232;2022-11-27T02:38:00;6.50;99.90
17599;DHT22;8918;52.092;5.232;2022-11-27T02:40:48;6.50;99.90
17599;DHT22;8918;52.092;5.232;2022-11-27T02:43:25;6.40;99.90
17599;DHT22;8918;52.092;5.232;2022-11-27T02:45:51;6.40;99.90
17599;DHT22;8918;52.092;5.232;2022-11-27T02:48:20;6.40;99.90
17599;DHT22;8918;52.092;5.232;2022-11-27T02:50:48;6.40;99.90
17599;DHT22;8918;52.092;5.232;2022-11-27T02:53:20;6.40;99.90
17599;DHT22;8918;52.092;5.232;2022-11-27T02:55:47;6.40;99.90
17599;DHT22;8918;52.092;5.232;2022-11-27T02:58:18;6.40;99.90
17599;DHT22;8918;52.092;5.232;2022-11-27T03:00:45;6.30;99.90
17599;DHT22;8918;52.092;5.232;2022-11-27T03:03:13;6.30;99.90
17599;DHT22;8918;52.092;5.232;2022-11-27T03:05:43;6.30;99.90
17599;DHT22;8918;52.092;5.232;2022-11-27T03:08:20;6.40;99.90
17599;DHT22;8918;52.092;5.232;2022-11-27T03:13:16;6.40;99.90
17599;DHT22;8918;52.092;5.232;2022-11-27T03:16:00;6.40;99.90
17599;DHT22;8918;52.092;5.232;2022-11-27T03:18:36;6.30;99.90
17599;DHT22;8918;52.092;5.232;2022-11-27T03:21:13;6.30;99.90
17599;DHT22;8918;52.092;5.232;2022-11-27T03:23:41;6.30;99.90
17599;DHT22;8918;52.092;5.232;2022-11-27T03:26:07;6.30;99.90
17599;DHT22;8918;52.092;5.232;2022-11-27T03:28:33;6.30;99.90
17599;DHT22;8918;52.092;5.232;2022-11-27T03:30:59;6.40;99.90
17599;DHT22;8918;52.092;5.232;2022-11-27T03:33:25;6.30;99.90
17599;DHT22;8918;52.092;5.232;2022-11-27T03:35:51;6.40;99.90
17599;DHT22;8918;52.092;5.232;2022-11-27T03:38:17;6.30;99.90
17599;DHT22;8918;52.092;5.232;2022-11-27T03:44:52;6.40;99.90
17599;DHT22;8918;52.092;5.232;2022-11-27T03:47:25;6.40;99.90
17599;DHT22;8918;52.092;5.232;2022-11-27T03:55:31;6.40;99.90
17599;DHT22;8918;52.092;5.232;2022-11-27T03:58:11;6.40;99.90
17599;DHT22;8918;52.092;5.232;2022-11-27T04:00:41;6.40;99.90
17599;DHT22;8918;52.092;5.232;2022-11-27T04:03:09;6.40;99.90
17599;DHT22;8918;52.092;5.232;2022-11-27T04:05:35;6.40;99.90
17599;DHT22;8918;52.092;5.232;2022-11-27T04:08:01;6.40;99.90
17599;DHT22;8918;52.092;5.232;2022-11-27T04:10:26;6.40;99.90
17599;DHT22;8918;52.092;5.232;2022-11-27T04:12:52;6.40;99.90
17599;DHT22;8918;52.092;5.232;2022-11-27T04:15:17;6.40;99.90
17599;DHT22;8918;52.092;5.232;2022-11-27T04:17:43;6.30;99.90
17599;DHT22;8918;52.092;5.232;2022-11-27T04:20:11;6.40;99.90
17599;DHT22;8918;52.092;5.232;2022-11-27T04:22:37;6.30;99.90
17599;DHT22;8918;52.092;5.232;2022-11-27T04:25:02;6.30;99.90
17599;DHT22;8918;52.092;5.232;2022-11-27T04:27:28;6.30;99.90
17599;DHT22;8918;52.092;5.232;2022-11-27T04:29:54;6.30;99.90
17599;DHT22;8918;52.092;5.232;2022-11-27T04:32:19;6.30;99.90
17599;DHT22;8918;52.092;5.232;2022-11-27T04:34:45;6.30;99.90
17599;DHT22;8918;52.092;5.232;2022-11-27T04:37:10;6.30;99.90
17599;DHT22;8918;52.092;5.232;2022-11-27T04:39:36;6.30;99.90
17599;DHT22;8918;52.092;5.232;2022-11-27T04:42:01;6.30;99.90
17599;DHT22;8918;52.092;5.232;2022-11-27T04:44:27;6.20;99.90
17599;DHT22;8918;52.092;5.232;2022-11-27T04:46:52;6.20;99.90
17599;DHT22;8918;52.092;5.232;2022-11-27T04:49:18;6.20;99.90
17599;DHT22;8918;52.092;5.232;2022-11-27T04:51:44;6.20;99.90
17599;DHT22;8918;52.092;5.232;2022-11-27T04:54:10;6.20;99.90
17599;DHT22;8918;52.092;5.232;2022-11-27T04:56:36;6.20;99.90
17599;DHT22;8918;52.092;5.232;2022-11-27T04:59:02;6.20;99.90
17599;DHT22;8918;52.092;5.232;2022-11-27T05:01:28;6.20;99.90
17599;DHT22;8918;52.092;5.232;2022-11-27T05:03:54;6.20;99.90
17599;DHT22;8918;52.092;5.232;2022-11-27T05:06:19;6.20;99.90
17599;DHT22;8918;52.092;5.232;2022-11-27T05:08:47;6.20;99.90
17599;DHT22;8918;52.092;5.232;2022-11-27T05:11:14;6.20;99.90
17599;DHT22;8918;52.092;5.232;2022-11-27T05:13:41;6.20;99.90
17599;DHT22;8918;52.092;5.232;2022-11-27T05:16:07;6.20;99.90
17599;DHT22;8918;52.092;5.232;2022-11-27T05:18:32;6.20;99.90
17599;DHT22;8918;52.092;5.232;2022-11-27T05:21:03;6.20;99.90
17599;DHT22;8918;52.092;5.232;2022-11-27T05:23:30;6.20;99.90
17599;DHT22;8918;52.092;5.232;2022-11-27T05:25:56;6.20;99.90
17599;DHT22;8918;52.092;5.232;2022-11-27T05:28:22;6.20;99.90
17599;DHT22;8918;52.092;5.232;2022-11-27T05:30:48;6.30;99.90
17599;DHT22;8918;52.092;5.232;2022-11-27T05:33:15;6.30;99.90
17599;DHT22;8918;52.092;5.232;2022-11-27T05:35:41;6.20;99.90
17599;DHT22;8918;52.092;5.232;2022-11-27T05:38:07;6.30;99.90
17599;DHT22;8918;52.092;5.232;2022-11-27T05:40:33;6.30;99.90
17599;DHT22;8918;52.092;5.232;2022-11-27T05:42:58;6.30;99.90
17599;DHT22;8918;52.092;5.232;2022-11-27T05:45:24;6.30;99.90
17599;DHT22;8918;52.092;5.232;2022-11-27T05:47:50;6.30;99.90
17599;DHT22;8918;52.092;5.232;2022-11-27T05:50:15;6.20;99.90
17599;DHT22;8918;52.092;5.232;2022-11-27T05:52:41;6.30;99.90
17599;DHT22;8918;52.092;5.232;2022-11-27T05:55:07;6.30;99.90
17599;DHT22;8918;52.092;5.232;2022-11-27T05:57:32;6.20;99.90
17599;DHT22;8918;52.092;5.232;2022-11-27T05:59:58;6.20;99.90
17599;DHT22;8918;52.092;5.232;2022-11-27T06:02:25;6.30;99.90
17599;DHT22;8918;52.092;5.232;2022-11-27T06:04:50;6.20;99.90
17599;DHT22;8918;52.092;5.232;2022-11-27T06:07:16;6.20;99.90
17599;DHT22;8918;52.092;5.232;2022-11-27T06:09:42;6.20;99.90
17599;DHT22;8918;52.092;5.232;2022-11-27T06:12:08;6.20;99.90
17599;DHT22;8918;52.092;5.232;2022-11-27T06:14:33;6.20;99.90
17599;DHT22;8918;52.092;5.232;2022-11-27T06:17:00;6.20;99.90
17599;DHT22;8918;52.092;5.232;2022-11-27T06:19:26;6.20;99.90
17599;DHT22;8918;52.092;5.232;2022-11-27T06:21:52;6.20;99.90
17599;DHT22;8918;52.092;5.232;2022-11-27T06:24:18;6.20;99.90
17599;DHT22;8918;52.092;5.232;2022-11-27T06:26:43;6.20;99.90
17599;DHT22;8918;52.092;5.232;2022-11-27T06:29:09;6.20;99.90
17599;DHT22;8918;52.092;5.232;2022-11-27T06:31:35;6.20;99.90
17599;DHT22;8918;52.092;5.232;2022-11-27T06:34:01;6.20;99.90
17599;DHT22;8918;52.092;5.232;2022-11-27T06:36:30;6.20;99.90
17599;DHT22;8918;52.092;5.232;2022-11-27T06:38:56;6.20;99.90
17599;DHT22;8918;52.092;5.232;2022-11-27T06:41:23;6.20;99.90
17599;DHT22;8918;52.092;5.232;2022-11-27T06:43:49;6.20;99.90
17599;DHT22;8918;52.092;5.232;2022-11-27T06:46:16;6.20;99.90
17599;DHT22;8918;52.092;5.232;2022-11-27T06:48:43;6.30;99.90
17599;DHT22;8918;52.092;5.232;2022-11-27T06:51:11;6.30;99.90
17599;DHT22;8918;52.092;5.232;2022-11-27T06:53:38;6.20;99.90
17599;DHT22;8918;52.092;5.232;2022-11-27T06:56:13;6.20;99.90
17599;DHT22;8918;52.092;5.232;2022-11-27T06:58:40;6.20;99.90
17599;DHT22;8918;52.092;5.232;2022-11-27T07:01:10;6.20;99.90
17599;DHT22;8918;52.092;5.232;2022-11-27T07:03:36;6.20;99.90
17599;DHT22;8918;52.092;5.232;2022-11-27T07:06:04;6.20;99.90
17599;DHT22;8918;52.092;5.232;2022-11-27T07:08:31;6.20;99.90
17599;DHT22;8918;52.092;5.232;2022-11-27T07:11:09;6.20;99.90
17599;DHT22;8918;52.092;5.232;2022-11-27T07:13:36;6.20;99.90
17599;DHT22;8918;52.092;5.232;2022-11-27T07:16:03;6.20;99.90
17599;DHT22;8918;52.092;5.232;2022-11-27T07:18:32;6.20;99.90
17599;DHT22;8918;52.092;5.232;2022-11-27T07:20:58;6.20;99.90
17599;DHT22;8918;52.092;5.232;2022-11-27T07:23:24;6.10;99.90
17599;DHT22;8918;52.092;5.232;2022-11-27T07:25:49;6.10;99.90
17599;DHT22;8918;52.092;5.232;2022-11-27T07:28:15;6.10;99.90
17599;DHT22;8918;52.092;5.232;2022-11-27T07:30:40;6.10;99.90
17599;DHT22;8918;52.092;5.232;2022-11-27T07:33:06;6.10;99.90
17599;DHT22;8918;52.092;5.232;2022-11-27T07:35:31;6.10;99.90
17599;DHT22;8918;52.092;5.232;2022-11-27T07:37:57;6.10;99.90
17599;DHT22;8918;52.092;5.232;2022-11-27T07:40:22;6.10;99.90
17599;DHT22;8918;52.092;5.232;2022-11-27T07:42:48;6.10;99.90
17599;DHT22;8918;52.092;5.232;2022-11-27T07:45:14;6.10;99.90
17599;DHT22;8918;52.092;5.232;2022-11-27T07:47:39;6.10;99.90
17599;DHT22;8918;52.092;5.232;2022-11-27T07:50:06;6.10;99.90
17599;DHT22;8918;52.092;5.232;2022-11-27T07:52:34;6.00;99.90
17599;DHT22;8918;52.092;5.232;2022-11-27T07:55:00;6.00;99.90
17599;DHT22;8918;52.092;5.232;2022-11-27T07:57:26;6.10;99.90
17599;DHT22;8918;52.092;5.232;2022-11-27T07:59:52;6.10;99.90
17599;DHT22;8918;52.092;5.232;2022-11-27T08:02:18;6.10;99.90
17599;DHT22;8918;52.092;5.232;2022-11-27T08:04:43;6.10;99.90
17599;DHT22;8918;52.092;5.232;2022-11-27T08:07:09;6.00;99.90
17599;DHT22;8918;52.092;5.232;2022-11-27T08:09:34;6.00;99.90
17599;DHT22;8918;52.092;5.232;2022-11-27T08:12:00;6.10;99.90
17599;DHT22;8918;52.092;5.232;2022-11-27T08:14:26;6.10;99.90
17599;DHT22;8918;52.092;5.232;2022-11-27T08:16:51;6.10;99.90
17599;DHT22;8918;52.092;5.232;2022-11-27T08:19:17;6.10;99.90
17599;DHT22;8918;52.092;5.232;2022-11-27T08:21:42;6.10;99.90
17599;DHT22;8918;52.092;5.232;2022-11-27T08:24:08;6.10;99.90
17599;DHT22;8918;52.092;5.232;2022-11-27T08:26:34;6.10;99.90
17599;DHT22;8918;52.092;5.232;2022-11-27T08:29:00;6.10;99.90
17599;DHT22;8918;52.092;5.232;2022-11-27T08:31:25;6.20;99.90
17599;DHT22;8918;52.092;5.232;2022-11-27T08:33:51;6.10;99.90
17599;DHT22;8918;52.092;5.232;2022-11-27T08:36:16;6.20;99.90
17599;DHT22;8918;52.092;5.232;2022-11-27T08:38:42;6.20;99.90
17599;DHT22;8918;52.092;5.232;2022-11-27T08:41:08;6.20;99.90
17599;DHT22;8918;52.092;5.232;2022-11-27T08:43:34;6.20;99.90
17599;DHT22;8918;52.092;5.232;2022-11-27T08:46:04;6.20;99.90
17599;DHT22;8918;52.092;5.232;2022-11-27T08:48:30;6.20;99.90
17599;DHT22;8918;52.092;5.232;2022-11-27T08:50:55;6.20;99.90
17599;DHT22;8918;52.092;5.232;2022-11-27T08:53:21;6.30;99.90
17599;DHT22;8918;52.092;5.232;2022-11-27T08:55:47;6.30;99.90
17599;DHT22;8918;52.092;5.232;2022-11-27T08:58:12;6.30;99.90
17599;DHT22;8918;52.092;5.232;2022-11-27T09:00:39;6.30;99.90
17599;DHT22;8918;52.092;5.232;2022-11-27T09:03:04;6.30;99.90
17599;DHT22;8918;52.092;5.232;2022-11-27T09:05:31;6.30;99.90
17599;DHT22;8918;52.092;5.232;2022-11-27T09:07:56;6.40;99.90
17599;DHT22;8918;52.092;5.232;2022-11-27T09:10:24;6.40;99.90
17599;DHT22;8918;52.092;5.232;2022-11-27T09:12:50;6.40;99.90
17599;DHT22;8918;52.092;5.232;2022-11-27T09:15:16;6.40;99.90
17599;DHT22;8918;52.092;5.232;2022-11-27T09:17:42;6.40;99.90
17599;DHT22;8918;52.092;5.232;2022-11-27T09:20:08;6.40;99.90
17599;DHT22;8918;52.092;5.232;2022-11-27T09:22:35;6.40;99.90
17599;DHT22;8918;52.092;5.232;2022-11-27T09:25:02;6.50;99.90
17599;DHT22;8918;52.092;5.232;2022-11-27T09:27:27;6.50;99.90
17599;DHT22;8918;52.092;5.232;2022-11-27T09:29:53;6.50;99.90
17599;DHT22;8918;52.092;5.232;2022-11-27T09:32:20;6.50;99.90
17599;DHT22;8918;52.092;5.232;2022-11-27T09:34:46;6.50;99.90
17599;DHT22;8918;52.092;5.232;2022-11-27T09:37:11;6.50;99.90
17599;DHT22;8918;52.092;5.232;2022-11-27T09:39:37;6.50;99.90
17599;DHT22;8918;52.092;5.232;2022-11-27T09:42:04;6.60;99.90
17599;DHT22;8918;52.092;5.232;2022-11-27T09:44:36;6.60;99.90
17599;DHT22;8918;52.092;5.232;2022-11-27T09:47:32;6.60;99.90
17599;DHT22;8918;52.092;5.232;2022-11-27T09:50:20;6.60;99.90
17599;DHT22;8918;52.092;5.232;2022-11-27T09:55:45;6.70;99.90
17599;DHT22;8918;52.092;5.232;2022-11-27T09:58:15;6.70;99.90
17599;DHT22;8918;52.092;5.232;2022-11-27T10:00:43;6.80;99.90
17599;DHT22;8918;52.092;5.232;2022-11-27T10:03:13;6.80;99.90
17599;DHT22;8918;52.092;5.232;2022-11-27T10:09:10;6.90;99.90
17599;DHT22;8918;52.092;5.232;2022-11-27T10:11:50;6.90;99.90
17599;DHT22;8918;52.092;5.232;2022-11-27T10:17:21;6.90;99.90
17599;DHT22;8918;52.092;5.232;2022-11-27T10:25:20;6.90;99.90
17599;DHT22;8918;52.092;5.232;2022-11-27T10:30:56;6.90;99.90
17599;DHT22;8918;52.092;5.232;2022-11-27T10:36:08;7.00;99.90
17599;DHT22;8918;52.092;5.232;2022-11-27T10:38:38;7.00;99.90
17599;DHT22;8918;52.092;5.232;2022-11-27T10:41:10;7.00;99.90
17599;DHT22;8918;52.092;5.232;2022-11-27T10:43:38;7.00;99.90
17599;DHT22;8918;52.092;5.232;2022-11-27T10:46:13;7.00;99.90
17599;DHT22;8918;52.092;5.232;2022-11-27T10:48:39;7.00;99.90
17599;DHT22;8918;52.092;5.232;2022-11-27T10:51:14;7.00;99.90
17599;DHT22;8918;52.092;5.232;2022-11-27T10:53:42;7.10;99.90
17599;DHT22;8918;52.092;5.232;2022-11-27T11:01:14;7.20;99.90
17599;DHT22;8918;52.092;5.232;2022-11-27T11:03:39;7.20;99.90
17599;DHT22;8918;52.092;5.232;2022-11-27T11:06:11;7.20;99.90
17599;DHT22;8918;52.092;5.232;2022-11-27T11:08:38;7.20;99.90
17599;DHT22;8918;52.092;5.232;2022-11-27T11:11:05;7.30;99.90
17599;DHT22;8918;52.092;5.232;2022-11-27T11:13:42;7.30;99.90
17599;DHT22;8918;52.092;5.232;2022-11-27T11:18:47;7.30;99.90
17599;DHT22;8918;52.092;5.232;2022-11-27T11:21:37;7.40;99.90
17599;DHT22;8918;52.092;5.232;2022-11-27T11:24:11;7.40;99.90
17599;DHT22;8918;52.092;5.232;2022-11-27T11:26:48;7.50;99.90
17599;DHT22;8918;52.092;5.232;2022-11-27T11:31:55;7.50;99.90
17599;DHT22;8918;52.092;5.232;2022-11-27T11:34:27;7.50;99.90
17599;DHT22;8918;52.092;5.232;2022-11-27T11:37:06;7.50;99.90
17599;DHT22;8918;52.092;5.232;2022-11-27T11:39:39;7.60;99.90
17599;DHT22;8918;52.092;5.232;2022-11-27T11:42:10;7.60;99.90
17599;DHT22;8918;52.092;5.232;2022-11-27T11:44:49;7.60;99.90
17599;DHT22;8918;52.092;5.232;2022-11-27T11:47:18;7.60;99.90
17599;DHT22;8918;52.092;5.232;2022-11-27T11:49:44;7.70;99.90
17599;DHT22;8918;52.092;5.232;2022-11-27T11:52:16;7.70;99.90
17599;DHT22;8918;52.092;5.232;2022-11-27T11:55:34;7.70;99.90
17599;DHT22;8918;52.092;5.232;2022-11-27T11:58:14;7.60;99.90
17599;DHT22;8918;52.092;5.232;2022-11-27T12:00:50;7.70;99.90
17599;DHT22;8918;52.092;5.232;2022-11-27T12:03:37;7.70;99.90
17599;DHT22;8918;52.092;5.232;2022-11-27T12:11:38;7.90;99.90
17599;DHT22;8918;52.092;5.232;2022-11-27T12:14:17;8.00;99.90
17599;DHT22;8918;52.092;5.232;2022-11-27T12:17:25;8.00;99.90
17599;DHT22;8918;52.092;5.232;2022-11-27T12:22:49;8.00;99.90
17599;DHT22;8918;52.092;5.232;2022-11-27T12:25:28;8.00;99.90
17599;DHT22;8918;52.092;5.232;2022-11-27T12:28:30;8.00;99.90
17599;DHT22;8918;52.092;5.232;2022-11-27T12:31:12;8.10;99.90
17599;DHT22;8918;52.092;5.232;2022-11-27T12:39:22;8.00;99.90
17599;DHT22;8918;52.092;5.232;2022-11-27T12:44:27;8.00;99.90
17599;DHT22;8918;52.092;5.232;2022-11-27T12:49:53;8.00;99.90
17599;DHT22;8918;52.092;5.232;2022-11-27T12:52:28;8.00;99.90
17599;DHT22;8918;52.092;5.232;2022-11-27T12:55:12;8.00;99.90
17599;DHT22;8918;52.092;5.232;2022-11-27T12:57:45;8.00;99.90
17599;DHT22;8918;52.092;5.232;2022-11-27T13:00:18;8.00;99.90
17599;DHT22;8918;52.092;5.232;2022-11-27T13:03:10;8.00;99.90
17599;DHT22;8918;52.092;5.232;2022-11-27T13:05:46;8.00;99.90
17599;DHT22;8918;52.092;5.232;2022-11-27T13:08:25;8.00;99.90
17599;DHT22;8918;52.092;5.232;2022-11-27T13:10:57;8.00;99.90
17599;DHT22;8918;52.092;5.232;2022-11-27T13:18:59;7.90;99.90
17599;DHT22;8918;52.092;5.232;2022-11-27T13:21:32;7.90;99.90
17599;DHT22;8918;52.092;5.232;2022-11-27T13:24:00;7.90;99.90
17599;DHT22;8918;52.092;5.232;2022-11-27T13:26:29;7.90;99.90
17599;DHT22;8918;52.092;5.232;2022-11-27T13:29:05;7.90;99.90
17599;DHT22;8918;52.092;5.232;2022-11-27T13:31:35;7.90;99.90
17599;DHT22;8918;52.092;5.232;2022-11-27T13:34:05;7.90;99.90
17599;DHT22;8918;52.092;5.232;2022-11-27T13:36:37;7.90;99.90
17599;DHT22;8918;52.092;5.232;2022-11-27T13:39:04;7.90;99.90
17599;DHT22;8918;52.092;5.232;2022-11-27T13:41:39;8.00;99.90
17599;DHT22;8918;52.092;5.232;2022-11-27T13:44:22;8.00;99.90
17599;DHT22;8918;52.092;5.232;2022-11-27T13:46:50;8.00;99.90
17599;DHT22;8918;52.092;5.232;2022-11-27T13:49:25;8.00;99.90
17599;DHT22;8918;52.092;5.232;2022-11-27T13:51:51;8.00;99.90
17599;DHT22;8918;52.092;5.232;2022-11-27T13:54:27;8.00;99.90
17599;DHT22;8918;52.092;5.232;2022-11-27T13:56:53;8.00;99.90
17599;DHT22;8918;52.092;5.232;2022-11-27T13:59:23;7.90;99.90
17599;DHT22;8918;52.092;5.232;2022-11-27T14:02:04;7.90;99.90
17599;DHT22;8918;52.092;5.232;2022-11-27T14:04:31;7.90;99.90
17599;DHT22;8918;52.092;5.232;2022-11-27T14:07:06;7.90;99.90
17599;DHT22;8918;52.092;5.232;2022-11-27T14:09:37;7.90;99.90
17599;DHT22;8918;52.092;5.232;2022-11-27T14:12:34;7.90;99.90
17599;DHT22;8918;52.092;5.232;2022-11-27T14:15:06;7.90;99.90
17599;DHT22;8918;52.092;5.232;2022-11-27T14:17:39;7.80;99.90
17599;DHT22;8918;52.092;5.232;2022-11-27T14:20:29;7.80;99.90
17599;DHT22;8918;52.092;5.232;2022-11-27T14:22:57;7.80;99.90
17599;DHT22;8918;52.092;5.232;2022-11-27T14:25:34;7.80;99.90
17599;DHT22;8918;52.092;5.232;2022-11-27T14:28:13;7.80;99.90
17599;DHT22;8918;52.092;5.232;2022-11-27T14:30:47;7.80;99.90
17599;DHT22;8918;52.092;5.232;2022-11-27T14:33:18;7.70;99.90
17599;DHT22;8918;52.092;5.232;2022-11-27T14:35:48;7.70;99.90
17599;DHT22;8918;52.092;5.232;2022-11-27T14:38:14;7.70;99.90
17599;DHT22;8918;52.092;5.232;2022-11-27T14:40:40;7.70;99.90
17599;DHT22;8918;52.092;5.232;2022-11-27T14:43:07;7.70;99.90
17599;DHT22;8918;52.092;5.232;2022-11-27T14:45:34;7.70;99.90
17599;DHT22;8918;52.092;5.232;2022-11-27T14:48:00;7.60;99.90
17599;DHT22;8918;52.092;5.232;2022-11-27T14:50:25;7.70;99.90
17599;DHT22;8918;52.092;5.232;2022-11-27T14:52:54;7.60;99.90
17599;DHT22;8918;52.092;5.232;2022-11-27T14:55:21;7.60;99.90
17599;DHT22;8918;52.092;5.232;2022-11-27T14:57:48;7.60;99.90
17599;DHT22;8918;52.092;5.232;2022-11-27T15:00:25;7.60;99.90
17599;DHT22;8918;52.092;5.232;2022-11-27T15:02:54;7.60;99.90
17599;DHT22;8918;52.092;5.232;2022-11-27T15:05:31;7.60;99.90
17599;DHT22;8918;52.092;5.232;2022-11-27T15:07:57;7.60;99.90
17599;DHT22;8918;52.092;5.232;2022-11-27T15:10:33;7.60;99.90
17599;DHT22;8918;52.092;5.232;2022-11-27T15:13:01;7.60;99.90
17599;DHT22;8918;52.092;5.232;2022-11-27T15:15:30;7.60;99.90
17599;DHT22;8918;52.092;5.232;2022-11-27T15:18:01;7.60;99.90
17599;DHT22;8918;52.092;5.232;2022-11-27T15:20:40;7.60;99.90
17599;DHT22;8918;52.092;5.232;2022-11-27T15:23:19;7.50;99.90
17599;DHT22;8918;52.092;5.232;2022-11-27T15:26:02;7.50;99.90
17599;DHT22;8918;52.092;5.232;2022-11-27T15:28:37;7.50;99.90
17599;DHT22;8918;52.092;5.232;2022-11-27T15:31:27;7.50;99.90
17599;DHT22;8918;52.092;5.232;2022-11-27T15:34:20;7.50;99.90
17599;DHT22;8918;52.092;5.232;2022-11-27T15:36:56;7.50;99.90
17599;DHT22;8918;52.092;5.232;2022-11-27T15:39:35;7.50;99.90
17599;DHT22;8918;52.092;5.232;2022-11-27T15:42:03;7.50;99.90
17599;DHT22;8918;52.092;5.232;2022-11-27T15:44:33;7.50;99.90
17599;DHT22;8918;52.092;5.232;2022-11-27T15:47:00;7.50;99.90
17599;DHT22;8918;52.092;5.232;2022-11-27T15:49:27;7.50;99.90
17599;DHT22;8918;52.092;5.232;2022-11-27T15:51:54;7.50;99.90
17599;DHT22;8918;52.092;5.232;2022-11-27T15:54:20;7.50;99.90
17599;DHT22;8918;52.092;5.232;2022-11-27T15:56:45;7.50;99.90
17599;DHT22;8918;52.092;5.232;2022-11-27T15:59:12;7.60;99.90
17599;DHT22;8918;52.092;5.232;2022-11-27T16:01:38;7.60;99.90
17599;DHT22;8918;52.092;5.232;2022-11-27T16:04:04;7.50;99.90
17599;DHT22;8918;52.092;5.232;2022-11-27T16:06:30;7.60;99.90
17599;DHT22;8918;52.092;5.232;2022-11-27T16:08:59;7.60;99.90
17599;DHT22;8918;52.092;5.232;2022-11-27T16:11:27;7.60;99.90
17599;DHT22;8918;52.092;5.232;2022-11-27T16:13:53;7.60;99.90
17599;DHT22;8918;52.092;5.232;2022-11-27T16:16:19;7.60;99.90
17599;DHT22;8918;52.092;5.232;2022-11-27T16:18:44;7.60;99.90
17599;DHT22;8918;52.092;5.232;2022-11-27T16:21:13;7.60;99.90
17599;DHT22;8918;52.092;5.232;2022-11-27T16:23:39;7.60;99.90
17599;DHT22;8918;52.092;5.232;2022-11-27T16:26:10;7.60;99.90
17599;DHT22;8918;52.092;5.232;2022-11-27T16:28:36;7.60;99.90
17599;DHT22;8918;52.092;5.232;2022-11-27T16:31:06;7.60;99.90
17599;DHT22;8918;52.092;5.232;2022-11-27T16:33:32;7.60;99.90
17599;DHT22;8918;52.092;5.232;2022-11-27T16:36:11;7.60;99.90
17599;DHT22;8918;52.092;5.232;2022-11-27T16:38:37;7.70;99.90
17599;DHT22;8918;52.092;5.232;2022-11-27T16:41:05;7.70;99.90
17599;DHT22;8918;52.092;5.232;2022-11-27T16:43:52;7.70;99.90
17599;DHT22;8918;52.092;5.232;2022-11-27T16:46:21;7.70;99.90
17599;DHT22;8918;52.092;5.232;2022-11-27T16:48:49;7.70;99.90
17599;DHT22;8918;52.092;5.232;2022-11-27T16:51:18;7.70;99.90
17599;DHT22;8918;52.092;5.232;2022-11-27T16:53:46;7.70;99.90
17599;DHT22;8918;52.092;5.232;2022-11-27T16:56:13;7.70;99.90
17599;DHT22;8918;52.092;5.232;2022-11-27T16:58:41;7.70;99.90
17599;DHT22;8918;52.092;5.232;2022-11-27T17:01:11;7.70;99.90
17599;DHT22;8918;52.092;5.232;2022-11-27T17:03:38;7.60;99.90
17599;DHT22;8918;52.092;5.232;2022-11-27T17:06:11;7.60;99.90
17599;DHT22;8918;52.092;5.232;2022-11-27T17:08:38;7.70;99.90
17599;DHT22;8918;52.092;5.232;2022-11-27T17:11:07;7.70;99.90
17599;DHT22;8918;52.092;5.232;2022-11-27T17:13:33;7.70;99.90
17599;DHT22;8918;52.092;5.232;2022-11-27T17:16:03;7.60;99.90
17599;DHT22;8918;52.092;5.232;2022-11-27T17:18:29;7.60;99.90
17599;DHT22;8918;52.092;5.232;2022-11-27T17:21:02;7.60;99.90
17599;DHT22;8918;52.092;5.232;2022-11-27T17:23:28;7.60;99.90
17599;DHT22;8918;52.092;5.232;2022-11-27T17:25:54;7.60;99.90
17599;DHT22;8918;52.092;5.232;2022-11-27T17:28:19;7.60;99.90
17599;DHT22;8918;52.092;5.232;2022-11-27T17:30:45;7.60;99.90
17599;DHT22;8918;52.092;5.232;2022-11-27T17:33:10;7.60;99.90
17599;DHT22;8918;52.092;5.232;2022-11-27T17:35:36;7.60;99.90
17599;DHT22;8918;52.092;5.232;2022-11-27T17:38:02;7.60;99.90
17599;DHT22;8918;52.092;5.232;2022-11-27T17:40:27;7.50;99.90
17599;DHT22;8918;52.092;5.232;2022-11-27T17:42:55;7.50;99.90
17599;DHT22;8918;52.092;5.232;2022-11-27T17:45:20;7.50;99.90
17599;DHT22;8918;52.092;5.232;2022-11-27T17:47:46;7.50;99.90